Time;durP1;ratioP1;P1;durP2;ratioP2;P2;SDS_P1;SDS_P2;PMS_P1;PMS_P2;Temp;Humidity;BMP_temperature;BMP_pressure;BME280_temperature;BME280_humidity;BME280_pressure;Samples;Min_cycle;Max_cycle;Signal;HPM_P1;HPM_P2
2021/06/02 00:08:24;;;;;;;2.97;2.30;;;14.20;99.90;;;;;;20836030;28;20037;-75
2021/06/02 00:18:25;;;;;;;3.65;2.33;;;13.90;99.90;;;;;;20834405;28;20116;-75
2021/06/02 00:28:26;;;;;;;2.92;2.08;;;13.60;99.90;;;;;;20834214;28;20056;-75
2021/06/02 00:38:28;;;;;;;4.50;2.33;;;13.50;99.90;;;;;;20833822;28;20578;-75
2021/06/02 00:48:28;;;;;;;4.00;2.93;;;13.00;99.90;;;;;;20832890;28;20044;-75
2021/06/02 00:58:31;;;;;;;5.05;2.78;;;12.90;99.90;;;;;;20831150;28;20029;-75
2021/06/02 01:08:34;;;;;;;3.58;2.40;;;12.80;99.90;;;;;;20831652;28;20506;-75
2021/06/02 01:18:35;;;;;;;4.90;2.00;;;13.00;99.90;;;;;;20829214;28;20060;-76
2021/06/02 01:28:36;;;;;;;6.55;3.17;;;12.80;99.90;;;;;;20831459;28;20468;-75
2021/06/02 01:38:55;;;;;;;5.30;2.88;;;12.50;99.90;;;;;;20831597;28;20611;-75
2021/06/02 01:49:15;;;;;;;6.32;2.90;;;12.10;99.90;;;;;;20828290;28;20036;-75
2021/06/02 01:59:41;;;;;;;10.77;2.92;;;11.70;99.90;;;;;;20827308;28;20499;-75
2021/06/02 02:10:06;;;;;;;6.43;2.85;;;11.70;99.90;;;;;;20826661;28;20025;-74
2021/06/02 02:20:30;;;;;;;5.70;2.72;;;11.50;99.90;;;;;;20826110;28;20396;-75
2021/06/02 02:30:58;;;;;;;4.53;3.05;;;11.50;99.90;;;;;;20825726;28;20055;-75
2021/06/02 02:41:18;;;;;;;7.53;3.40;;;11.30;99.90;;;;;;20823963;28;20033;-75
2021/06/02 02:51:25;;;;;;;5.75;3.15;;;10.70;99.90;;;;;;20824259;28;20480;-75
2021/06/02 03:01:42;;;;;;;7.13;2.92;;;11.10;99.90;;;;;;20823010;28;20037;-75
2021/06/02 03:12:05;;;;;;;6.28;3.13;;;11.00;99.90;;;;;;20823856;28;20029;-75
2021/06/02 03:22:19;;;;;;;10.27;3.10;;;10.60;99.90;;;;;;20821568;28;20029;-75
2021/06/02 03:32:42;;;;;;;6.35;3.17;;;10.50;99.90;;;;;;20821934;28;20449;-75
2021/06/02 03:42:56;;;;;;;6.85;3.25;;;10.50;99.90;;;;;;20822183;28;20079;-75
2021/06/02 03:53:29;;;;;;;3.75;2.72;;;10.30;99.90;;;;;;20823975;28;20107;-75
2021/06/02 04:03:57;;;;;;;6.53;3.30;;;10.40;99.90;;;;;;20833087;28;20076;-75
2021/06/02 04:14:00;;;;;;;8.40;3.03;;;10.70;99.90;;;;;;20835824;28;20030;-75
2021/06/02 04:24:06;;;;;;;7.50;3.53;;;10.70;99.90;;;;;;20834166;28;20117;-75
2021/06/02 04:34:07;;;;;;;7.00;3.45;;;11.00;99.90;;;;;;20834899;28;20053;-75
2021/06/02 04:44:16;;;;;;;7.45;3.63;;;11.60;99.90;;;;;;20833774;28;20025;-74
2021/06/02 04:54:23;;;;;;;6.38;3.42;;;12.30;99.90;;;;;;20833102;28;20060;-75
2021/06/02 05:04:51;;;;;;;5.68;3.67;;;12.70;99.90;;;;;;20832740;28;20108;-75
2021/06/02 05:15:04;;;;;;;4.47;3.45;;;13.10;99.90;;;;;;20829711;28;20033;-75
2021/06/02 05:25:40;;;;;;;12.15;3.55;;;12.80;99.90;;;;;;20833181;28;20108;-75
2021/06/02 05:35:59;;;;;;;10.90;4.25;;;13.00;99.90;;;;;;20862341;22;20076;-79
2021/06/02 05:46:37;;;;;;;7.30;3.90;;;13.20;99.90;;;;;;20831857;28;20025;-80
2021/06/02 05:57:16;;;;;;;6.32;4.30;;;13.70;99.90;;;;;;20829401;28;20040;-80
2021/06/02 06:07:35;;;;;;;8.73;3.78;;;14.20;99.90;;;;;;20811827;28;20037;-80
2021/06/02 06:18:20;;;;;;;5.47;3.10;;;14.60;99.90;;;;;;20830298;28;20025;-80
2021/06/02 06:28:45;;;;;;;4.53;2.83;;;15.30;99.90;;;;;;20832204;28;20116;-79
2021/06/02 06:39:05;;;;;;;4.10;2.88;;;15.70;99.90;;;;;;20825009;28;20120;-80
2021/06/02 06:49:09;;;;;;;7.70;2.85;;;16.20;99.90;;;;;;20824382;28;20498;-80
2021/06/02 06:59:11;;;;;;;5.55;2.70;;;16.90;99.90;;;;;;20828253;28;20026;-80
2021/06/02 07:09:12;;;;;;;4.47;2.30;;;17.30;99.90;;;;;;20828581;28;20124;-79
2021/06/02 07:19:16;;;;;;;4.03;2.20;;;18.10;99.90;;;;;;20826112;28;20064;-80
2021/06/02 07:29:18;;;;;;;3.75;2.30;;;19.20;99.90;;;;;;20826805;28;20038;-80
2021/06/02 07:39:18;;;;;;;3.60;2.40;;;19.50;99.90;;;;;;20842140;28;20104;-80
2021/06/02 07:49:19;;;;;;;6.10;2.37;;;19.40;99.90;;;;;;20842564;28;20021;-80
2021/06/02 07:59:20;;;;;;;8.37;2.40;;;20.30;99.90;;;;;;20840597;28;20121;-80
2021/06/02 08:09:21;;;;;;;4.20;2.40;;;20.90;99.90;;;;;;20824120;28;20025;-80
2021/06/02 08:19:22;;;;;;;6.00;2.17;;;21.10;99.90;;;;;;20838913;28;20482;-80
2021/06/02 08:29:23;;;;;;;5.67;2.73;;;22.80;99.90;;;;;;20839387;28;20043;-80
2021/06/02 08:39:25;;;;;;;6.57;2.33;;;23.30;99.90;;;;;;20818874;28;20033;-80
2021/06/02 08:49:26;;;;;;;4.13;2.40;;;23.30;99.90;;;;;;20816259;28;20037;-80
2021/06/02 08:59:26;;;;;;;4.40;2.30;;;23.70;99.90;;;;;;20831388;28;20025;-80
2021/06/02 09:09:29;;;;;;;6.00;2.00;;;23.60;99.90;;;;;;20831895;28;20449;-80
2021/06/02 09:19:37;;;;;;;3.28;2.22;;;24.50;99.90;;;;;;20830237;28;20064;-80
2021/06/02 09:29:52;;;;;;;5.93;2.30;;;24.30;99.90;;;;;;20843546;28;20121;-80
2021/06/02 09:39:53;;;;;;;6.25;2.13;;;25.30;99.90;;;;;;20844873;28;20036;-80
2021/06/02 09:49:56;;;;;;;3.73;2.30;;;25.40;99.90;;;;;;20841333;28;20041;-80
2021/06/02 09:59:58;;;;;;;2.55;2.20;;;25.60;99.90;;;;;;20821377;28;20132;-80
2021/06/02 10:10:11;;;;;;;5.82;1.83;;;25.20;99.90;;;;;;20836721;28;20056;-80
2021/06/02 10:20:13;;;;;;;3.65;2.22;;;25.00;99.90;;;;;;20833036;28;20540;-80
2021/06/02 10:30:15;;;;;;;5.38;2.17;;;24.90;99.90;;;;;;20845746;28;20491;-80
2021/06/02 10:40:22;;;;;;;6.53;2.33;;;25.60;99.90;;;;;;20844272;28;20033;-80
2021/06/02 10:50:32;;;;;;;12.25;6.25;;;25.30;99.90;;;;;;20827788;28;20043;-80
2021/06/02 11:00:34;;;;;;;4.68;2.00;;;25.90;99.90;;;;;;20841598;28;20048;-80
2021/06/02 11:10:35;;;;;;;3.78;1.80;;;25.90;99.90;;;;;;20835551;28;20033;-80
2021/06/02 11:20:55;;;;;;;5.90;2.10;;;25.80;99.90;;;;;;20860902;28;20033;-80
2021/06/02 11:31:45;;;;;;;3.03;1.77;;;26.10;99.90;;;;;;20854758;28;20037;-80
2021/06/02 11:41:46;;;;;;;3.40;1.80;;;26.40;99.90;;;;;;20828495;28;20103;-80
2021/06/02 11:51:48;;;;;;;3.08;2.17;;;26.20;99.90;;;;;;20850825;28;20026;-80
2021/06/02 12:01:49;;;;;;;6.68;1.90;;;26.80;99.90;;;;;;20848678;28;20037;-80
2021/06/02 12:11:50;;;;;;;2.60;1.63;;;26.50;99.70;;;;;;20831873;28;20132;-80
2021/06/02 12:21:51;;;;;;;6.60;1.95;;;25.40;99.90;;;;;;20845985;28;20045;-80
2021/06/02 12:31:55;;;;;;;3.92;1.80;;;25.90;99.20;;;;;;20847281;28;20040;-80
2021/06/02 12:41:58;;;;;;;3.85;1.70;;;25.80;98.80;;;;;;20845457;28;20037;-81
2021/06/02 12:52:00;;;;;;;2.95;1.77;;;27.00;97.20;;;;;;20848669;28;20036;-81
2021/06/02 13:02:12;;;;;;;4.35;1.60;;;28.60;96.60;;;;;;20848268;28;20481;-80
2021/06/02 13:12:19;;;;;;;6.88;3.30;;;28.30;94.60;;;;;;20827551;28;20086;-80
2021/06/02 13:22:24;;;;;;;1.98;1.40;;;29.30;92.60;;;;;;20754596;28;20038;-80
2021/06/02 13:32:25;;;;;;;2.42;1.65;;;28.60;95.90;;;;;;20764547;28;20158;-81
2021/06/02 13:42:25;;;;;;;6.72;1.70;;;29.80;89.10;;;;;;20813429;28;20726;-80
2021/06/02 13:52:26;;;;;;;4.60;1.38;;;30.50;92.70;;;;;;20823573;28;20238;-80
2021/06/02 14:02:34;;;;;;;3.85;1.60;;;29.50;92.00;;;;;;20817681;28;20436;-80
2021/06/02 14:12:37;;;;;;;1.92;1.45;;;29.80;90.50;;;;;;20795484;28;20048;-80
2021/06/02 14:22:39;;;;;;;2.25;1.48;;;29.20;85.60;;;;;;20808945;28;20053;-80
2021/06/02 14:32:39;;;;;;;2.58;1.63;;;28.60;89.10;;;;;;20811837;28;20045;-79
2021/06/02 14:42:41;;;;;;;6.60;1.80;;;28.50;90.10;;;;;;20811240;28;20100;-80
2021/06/02 14:52:42;;;;;;;6.70;1.75;;;29.40;89.00;;;;;;20814902;28;20065;-80
2021/06/02 15:02:43;;;;;;;3.40;2.08;;;28.40;89.40;;;;;;20794746;28;20041;-80
2021/06/02 15:12:49;;;;;;;1.77;1.35;;;27.70;89.00;;;;;;20820076;28;20041;-80
2021/06/02 15:22:50;;;;;;;2.05;1.50;;;27.10;90.60;;;;;;20869161;28;20036;-80
2021/06/02 15:32:51;;;;;;;2.08;1.40;;;27.10;93.60;;;;;;20806052;28;20032;-81
2021/06/02 15:42:55;;;;;;;;;;;27.40;93.40;;;;;;20809220;28;20033;-81
2021/06/02 15:53:01;;;;;;;1.65;1.35;;;27.60;93.40;;;;;;20810403;28;19916;-81
2021/06/02 16:03:02;;;;;;;3.60;2.03;;;27.80;92.60;;;;;;20801884;28;20052;-80
2021/06/02 16:13:04;;;;;;;5.50;1.70;;;26.90;93.20;;;;;;20871416;28;20100;-80
2021/06/02 16:23:05;;;;;;;7.82;2.80;;;26.30;94.50;;;;;;20880609;28;20056;-80
2021/06/02 16:33:07;;;;;;;7.87;3.07;;;26.10;95.30;;;;;;20901581;28;20048;-80
2021/06/02 16:43:11;;;;;;;4.95;1.83;;;25.90;94.90;;;;;;20895688;28;20639;-81
2021/06/02 16:53:13;;;;;;;6.03;2.10;;;25.70;95.50;;;;;;20817250;28;20033;-80
2021/06/02 17:03:14;;;;;;;4.38;1.45;;;23.70;99.50;;;;;;20795254;28;20456;-80
2021/06/02 17:13:15;;;;;;;4.00;1.70;;;23.80;99.90;;;;;;20813064;28;20363;-79
2021/06/02 17:23:20;;;;;;;5.37;1.77;;;23.10;99.90;;;;;;20810381;28;20060;-79
2021/06/02 17:33:22;;;;;;;8.30;1.63;;;22.60;99.90;;;;;;20812923;28;20494;-80
2021/06/02 17:43:22;;;;;;;;;;;22.50;99.90;;;;;;20816574;23;20048;-76
2021/06/02 17:53:25;;;;;;;4.70;2.03;;;22.50;99.90;;;;;;20891019;28;19917;-76
2021/06/02 18:03:25;;;;;;;11.75;3.85;;;22.30;99.90;;;;;;20890824;28;20024;-76
2021/06/02 18:13:26;;;;;;;13.97;3.43;;;22.20;99.90;;;;;;20889186;28;20037;-77
2021/06/02 18:23:28;;;;;;;8.83;1.70;;;22.40;99.90;;;;;;20888490;28;20044;-76
2021/06/02 18:33:30;;;;;;;8.63;1.63;;;22.20;99.90;;;;;;20886472;28;20044;-77
2021/06/02 18:43:31;;;;;;;5.63;2.05;;;21.90;99.90;;;;;;20888318;28;20417;-75
2021/06/02 18:53:32;;;;;;;6.03;2.30;;;21.90;99.90;;;;;;20887173;28;20083;-76
2021/06/02 19:03:34;;;;;;;5.27;2.20;;;21.60;99.90;;;;;;20885465;28;20283;-75
2021/06/02 19:13:37;;;;;;;5.27;2.10;;;21.60;99.90;;;;;;20895488;28;20369;-76
2021/06/02 19:23:38;;;;;;;7.68;2.10;;;21.30;99.90;;;;;;20886723;28;20055;-75
2021/06/02 19:33:39;;;;;;;2.97;2.13;;;20.80;99.90;;;;;;20897499;28;20510;-75
2021/06/02 19:43:39;;;;;;;4.97;2.30;;;20.60;99.90;;;;;;20899964;28;20119;-77
2021/06/02 19:53:40;;;;;;;3.30;2.30;;;19.80;99.90;;;;;;20901762;28;20028;-76
2021/06/02 20:03:41;;;;;;;3.27;2.30;;;19.50;99.90;;;;;;20901833;28;20090;-76
2021/06/02 20:13:42;;;;;;;3.37;2.60;;;19.00;99.90;;;;;;20900010;28;20083;-76
2021/06/02 20:23:43;;;;;;;3.70;2.70;;;18.90;99.90;;;;;;20900546;28;20414;-76
2021/06/02 20:33:44;;;;;;;5.07;2.87;;;18.90;99.90;;;;;;20898510;28;20091;-75
2021/06/02 20:43:45;;;;;;;4.13;2.40;;;18.60;99.90;;;;;;20897252;28;20041;-76
2021/06/02 20:53:46;;;;;;;4.83;2.83;;;18.50;99.90;;;;;;20900044;28;20064;-74
2021/06/02 21:03:47;;;;;;;4.30;2.77;;;18.50;99.90;;;;;;20901624;28;20057;-76
2021/06/02 21:13:48;;;;;;;2.53;2.00;;;18.30;99.90;;;;;;20896985;28;20120;-76
2021/06/02 21:23:49;;;;;;;3.33;2.03;;;18.20;99.90;;;;;;20894934;28;20056;-76
2021/06/02 21:33:50;;;;;;;4.30;2.20;;;17.90;99.90;;;;;;20875861;28;20135;-76
2021/06/02 21:43:51;;;;;;;6.10;2.30;;;17.80;99.90;;;;;;20893284;28;20640;-75
2021/06/02 21:53:52;;;;;;;5.57;2.73;;;17.70;99.90;;;;;;20892025;28;20032;-75
2021/06/02 22:03:53;;;;;;;5.80;3.07;;;17.50;99.90;;;;;;20891907;28;20040;-75
2021/06/02 22:13:53;;;;;;;2.90;2.37;;;17.40;99.90;;;;;;20889064;28;20087;-75
2021/06/02 22:23:54;;;;;;;8.60;3.23;;;17.40;99.90;;;;;;20890931;28;20055;-76
2021/06/02 22:33:55;;;;;;;6.10;3.50;;;17.20;99.90;;;;;;20872587;28;20025;-75
2021/06/02 22:43:56;;;;;;;7.30;3.97;;;17.40;99.90;;;;;;20890522;28;20037;-75
2021/06/02 22:53:57;;;;;;;5.13;3.27;;;17.30;99.90;;;;;;20899179;28;20112;-76
2021/06/02 23:03:58;;;;;;;8.50;4.03;;;17.40;99.90;;;;;;20891582;28;20033;-76
2021/06/02 23:14:00;;;;;;;6.17;3.47;;;17.50;99.90;;;;;;20904020;28;20108;-75
2021/06/02 23:24:01;;;;;;;6.32;4.05;;;17.10;99.90;;;;;;20904006;28;20040;-75
2021/06/02 23:34:02;;;;;;;7.03;4.87;;;17.10;99.90;;;;;;20902924;28;20039;-76
2021/06/02 23:44:03;;;;;;;10.60;5.60;;;16.50;99.90;;;;;;20917994;22;20152;-78
2021/06/02 23:54:04;;;;;;;7.97;5.60;;;16.40;99.90;;;;;;20909826;28;20028;-79
